createdAt,value
2022-11-17T00:00:34.095Z,52.40
2022-11-17T00:03:01.309Z,59.65
2022-11-17T00:05:28.686Z,59.90
2022-11-17T00:07:56.101Z,42.47
2022-11-17T00:10:23.332Z,53.38
2022-11-17T00:13:09.047Z,61.60
2022-11-17T00:15:36.310Z,59.08
2022-11-17T00:18:21.914Z,64.28
2022-11-17T00:21:07.892Z,49.58
2022-11-17T00:23:50.831Z,50.50
2022-11-17T00:26:23.888Z,57.67
2022-11-17T00:28:55.751Z,51.55
2022-11-17T00:31:42.768Z,62.33
2022-11-17T00:34:16.096Z,85.70
2022-11-17T00:39:13.275Z,69.55
2022-11-17T00:41:40.728Z,62.67
2022-11-17T00:44:08.880Z,53.33
2022-11-17T00:46:37.699Z,60.83
2022-11-17T00:49:06.923Z,80.22
2022-11-17T00:51:34.678Z,76.18
2022-11-17T00:54:02.629Z,79.13
2022-11-17T00:56:29.922Z,81.45
2022-11-17T00:58:57.605Z,60.75
2022-11-17T01:01:25.278Z,70.78
2022-11-17T01:04:03.637Z,65.05
2022-11-17T01:06:37.288Z,57.65
2022-11-17T01:11:33.686Z,57.65
2022-11-17T01:14:01.590Z,71.10
2022-11-17T01:16:30.808Z,67.63
2022-11-17T01:19:01.217Z,62.28
2022-11-17T01:21:30.190Z,67.75
2022-11-17T01:24:00.098Z,59.08
2022-11-17T01:26:30.902Z,51.70
2022-11-17T01:29:00.291Z,62.70
2022-11-17T01:31:30.834Z,56.33
2022-11-17T01:33:58.699Z,57.42
2022-11-17T01:36:29.630Z,52.22
2022-11-17T01:38:57.304Z,54.72
2022-11-17T01:41:27.555Z,55.45
2022-11-17T01:43:59.585Z,69.60
2022-11-17T01:46:29.776Z,55.65
2022-11-17T01:49:22.644Z,51.83
2022-11-17T01:51:55.874Z,61.57
2022-11-17T01:54:26.389Z,50.88
2022-11-17T01:56:58.676Z,40.13
2022-11-17T01:59:38.914Z,48.63
2022-11-17T02:02:07.268Z,53.38
2022-11-17T02:04:35.933Z,47.67
2022-11-17T02:07:09.754Z,49.17
2022-11-17T02:09:41.260Z,47.03
2022-11-17T02:12:12.094Z,47.00
2022-11-17T02:14:40.241Z,40.63
2022-11-17T02:17:14.030Z,39.70
2022-11-17T02:19:45.591Z,44.45
2022-11-17T02:22:50.137Z,49.97
2022-11-17T02:25:53.478Z,42.55
2022-11-17T02:28:30.735Z,43.53
2022-11-17T02:31:29.779Z,34.17
2022-11-17T02:34:00.037Z,36.88
2022-11-17T02:36:44.596Z,32.35
2022-11-17T02:39:44.920Z,33.80
2022-11-17T02:42:44.663Z,33.28
2022-11-17T02:45:26.926Z,39.65
2022-11-17T02:47:58.226Z,39.92
2022-11-17T02:50:28.663Z,34.55
2022-11-17T02:52:56.783Z,28.92
2022-11-17T02:55:23.926Z,35.80
2022-11-17T02:57:51.170Z,35.50
2022-11-17T03:00:20.204Z,33.90
2022-11-17T03:03:05.598Z,27.20
2022-11-17T03:05:57.046Z,33.00
2022-11-17T03:08:42.595Z,28.80
2022-11-17T03:11:11.278Z,33.67
2022-11-17T03:13:44.298Z,28.23
2022-11-17T03:16:37.010Z,21.65
2022-11-17T03:19:19.397Z,27.23
2022-11-17T03:22:08.498Z,25.90
2022-11-17T03:24:58.678Z,25.55
2022-11-17T03:27:29.959Z,28.30
2022-11-17T03:30:03.494Z,34.30
2022-11-17T03:32:37.293Z,28.65
2022-11-17T03:35:19.756Z,19.85
2022-11-17T03:37:53.884Z,23.88
2022-11-17T03:40:25.945Z,28.08
2022-11-17T03:42:58.936Z,22.48
2022-11-17T03:45:30.617Z,24.08
2022-11-17T03:48:04.563Z,29.73
2022-11-17T03:50:37.054Z,23.75
2022-11-17T03:53:05.992Z,23.00
2022-11-17T03:55:54.359Z,27.10
2022-11-17T03:58:27.175Z,37.00
2022-11-17T04:00:57.260Z,35.67
2022-11-17T04:03:29.210Z,34.65
2022-11-17T04:05:56.712Z,24.05
2022-11-17T04:08:26.326Z,22.38
2022-11-17T04:11:11.852Z,26.55
2022-11-17T04:13:57.890Z,28.55
2022-11-17T04:16:25.435Z,26.20
2022-11-17T04:18:58.582Z,29.70
2022-11-17T04:21:26.616Z,24.95
2022-11-17T04:23:53.951Z,25.15
2022-11-17T04:26:39.411Z,27.92
2022-11-17T04:29:06.703Z,22.23
2022-11-17T04:31:34.208Z,31.25
2022-11-17T04:34:03.950Z,38.63
2022-11-17T04:36:40.905Z,34.50
2022-11-17T04:39:08.043Z,33.13
2022-11-17T04:41:54.556Z,36.08
2022-11-17T04:44:27.603Z,27.58
2022-11-17T04:46:56.480Z,47.00
2022-11-17T04:49:25.385Z,38.70
2022-11-17T04:51:55.141Z,27.38
2022-11-17T04:54:26.423Z,25.38
2022-11-17T04:56:55.299Z,27.70
2022-11-17T04:59:23.395Z,23.88
2022-11-17T05:01:50.792Z,34.05
2022-11-17T05:04:42.211Z,25.55
2022-11-17T05:07:11.588Z,37.10
2022-11-17T05:09:42.279Z,26.52
2022-11-17T05:12:28.578Z,31.80
2022-11-17T05:14:56.158Z,40.17
2022-11-17T05:17:23.315Z,25.73
2022-11-17T05:19:50.730Z,27.25
2022-11-17T05:22:39.236Z,37.28
2022-11-17T05:25:07.133Z,45.40
2022-11-17T05:27:35.392Z,58.75
2022-11-17T05:30:05.757Z,71.80
2022-11-17T05:32:32.971Z,68.13
2022-11-17T05:35:00.267Z,83.15
2022-11-17T05:37:27.528Z,82.93
2022-11-17T05:39:54.685Z,66.50
2022-11-17T05:42:22.126Z,53.45
2022-11-17T05:44:51.862Z,45.25
2022-11-17T05:47:19.108Z,43.60
2022-11-17T05:49:46.360Z,33.50
2022-11-17T05:52:15.541Z,47.00
2022-11-17T05:54:42.696Z,38.90
2022-11-17T05:57:15.350Z,39.08
2022-11-17T05:59:51.183Z,52.53
2022-11-17T06:02:25.244Z,39.55
2022-11-17T06:04:52.907Z,35.03
2022-11-17T06:07:20.660Z,52.92
2022-11-17T06:09:48.128Z,37.33
2022-11-17T06:12:15.708Z,35.08
2022-11-17T06:14:43.222Z,30.42
2022-11-17T06:17:25.652Z,24.35
2022-11-17T06:20:14.164Z,28.35
2022-11-17T06:22:47.010Z,32.95
2022-11-17T06:25:17.281Z,26.80
2022-11-17T06:27:45.506Z,27.55
2022-11-17T06:30:13.097Z,24.60
2022-11-17T06:32:44.437Z,37.72
2022-11-17T06:35:13.968Z,26.63
2022-11-17T06:37:41.193Z,25.30
2022-11-17T06:40:10.429Z,28.60
2022-11-17T06:42:58.500Z,27.83
2022-11-17T06:45:26.150Z,33.63
2022-11-17T06:47:54.223Z,32.40
2022-11-17T06:50:21.893Z,29.73
2022-11-17T06:52:49.706Z,34.28
2022-11-17T06:55:17.383Z,24.33
2022-11-17T06:57:50.354Z,24.85
2022-11-17T07:00:21.294Z,32.13
2022-11-17T07:02:48.552Z,52.05
2022-11-17T07:05:15.920Z,40.30
2022-11-17T07:07:43.152Z,43.70
2022-11-17T07:10:10.794Z,32.65
2022-11-17T07:12:37.935Z,34.40
2022-11-17T07:15:05.558Z,36.90
2022-11-17T07:17:32.916Z,30.95
2022-11-17T07:20:00.241Z,40.00
2022-11-17T07:22:27.482Z,43.42
2022-11-17T07:24:54.700Z,37.28
2022-11-17T07:27:22.136Z,33.33
2022-11-17T07:29:51.555Z,26.77
2022-11-17T07:32:18.971Z,25.88
2022-11-17T07:34:46.263Z,18.15
2022-11-17T07:37:13.523Z,21.42
2022-11-17T07:39:40.679Z,24.10
2022-11-17T07:42:08.003Z,24.23
2022-11-17T07:44:35.326Z,12.60
2022-11-17T07:47:02.549Z,19.73
2022-11-17T07:49:29.911Z,18.35
2022-11-17T07:51:57.402Z,14.23
2022-11-17T07:54:24.809Z,16.27
2022-11-17T07:56:52.327Z,15.30
2022-11-17T07:59:21.479Z,14.95
2022-11-17T08:01:49.164Z,16.90
2022-11-17T08:04:16.734Z,19.45
2022-11-17T08:06:44.147Z,23.25
2022-11-17T08:09:14.456Z,21.42
2022-11-17T08:11:41.656Z,17.23
2022-11-17T08:14:08.997Z,16.75
2022-11-17T08:16:36.429Z,20.15
2022-11-17T08:19:06.315Z,18.70
2022-11-17T08:21:33.578Z,21.67
2022-11-17T08:24:00.984Z,15.02
2022-11-17T08:26:28.276Z,21.13
2022-11-17T08:28:58.949Z,16.88
2022-11-17T08:31:26.551Z,19.17
2022-11-17T08:33:53.628Z,18.75
2022-11-17T08:36:20.906Z,13.93
2022-11-17T08:38:48.568Z,22.48
2022-11-17T08:41:15.649Z,23.92
2022-11-17T08:43:43.103Z,25.48
2022-11-17T08:46:14.135Z,17.00
2022-11-17T08:48:41.794Z,19.77
2022-11-17T08:51:10.547Z,28.48
2022-11-17T08:53:37.713Z,27.55
2022-11-17T08:56:10.105Z,30.33
2022-11-17T08:58:42.361Z,30.87
2022-11-17T09:01:18.646Z,34.35
2022-11-17T09:03:47.586Z,34.80
2022-11-17T09:06:16.481Z,31.65
2022-11-17T09:08:46.212Z,32.05
2022-11-17T09:11:25.644Z,27.35
2022-11-17T09:13:52.965Z,26.25
2022-11-17T09:16:20.847Z,25.60
2022-11-17T09:18:47.988Z,44.47
2022-11-17T09:21:16.683Z,29.73
2022-11-17T09:23:44.221Z,31.88
2022-11-17T09:26:13.715Z,25.00
2022-11-17T09:28:41.070Z,38.33
2022-11-17T09:31:16.926Z,38.97
2022-11-17T09:33:44.758Z,32.92
2022-11-17T09:36:14.018Z,38.05
2022-11-17T09:38:41.659Z,30.75
2022-11-17T09:41:17.990Z,38.83
2022-11-17T09:44:26.851Z,29.15
2022-11-17T09:46:53.931Z,41.58
2022-11-17T09:49:30.291Z,37.80
2022-11-17T09:52:02.396Z,35.17
2022-11-17T09:54:53.394Z,31.27
2022-11-17T09:57:30.656Z,34.85
2022-11-17T10:00:22.891Z,35.30
2022-11-17T10:02:52.111Z,28.45
2022-11-17T10:05:29.806Z,24.13
2022-11-17T10:08:03.701Z,26.98
2022-11-17T10:10:40.159Z,28.83
2022-11-17T10:13:25.614Z,22.70
2022-11-17T10:16:08.432Z,28.25
2022-11-17T10:18:38.493Z,30.27
2022-11-17T10:21:08.105Z,20.15
2022-11-17T10:23:44.484Z,20.30
2022-11-17T10:26:15.804Z,32.08
2022-11-17T10:28:43.595Z,23.35
2022-11-17T10:31:10.885Z,20.35
2022-11-17T10:33:45.092Z,30.55
2022-11-17T10:36:20.137Z,25.80
2022-11-17T10:38:50.675Z,23.83
2022-11-17T10:41:25.677Z,22.80
2022-11-17T10:44:07.009Z,21.27
2022-11-17T10:46:45.011Z,29.50
2022-11-17T10:49:28.252Z,24.60
2022-11-17T10:52:19.135Z,26.13
2022-11-17T10:54:46.225Z,29.45
2022-11-17T10:57:20.847Z,24.08
2022-11-17T10:59:57.859Z,21.48
2022-11-17T11:02:37.505Z,23.67
2022-11-17T11:05:12.055Z,17.58
2022-11-17T11:07:40.085Z,23.38
2022-11-17T11:10:16.114Z,18.08
2022-11-17T11:12:54.178Z,11.55
2022-11-17T11:15:26.117Z,13.25
2022-11-17T11:17:53.571Z,9.30
2022-11-17T11:20:30.944Z,8.15
2022-11-17T11:23:22.254Z,9.30
2022-11-17T11:25:56.128Z,7.88
2022-11-17T11:28:32.427Z,7.38
2022-11-17T11:31:12.650Z,6.53
2022-11-17T11:33:45.746Z,8.65
2022-11-17T11:36:23.494Z,13.05
2022-11-17T11:38:57.503Z,7.32
2022-11-17T11:41:41.497Z,10.27
2022-11-17T11:44:29.729Z,9.55
2022-11-17T11:47:12.353Z,6.07
2022-11-17T11:49:51.031Z,9.77
2022-11-17T11:52:26.208Z,7.80
2022-11-17T11:55:07.811Z,9.95
2022-11-17T11:57:43.653Z,10.63
2022-11-17T12:00:18.858Z,13.30
2022-11-17T12:02:56.803Z,11.07
2022-11-17T12:05:37.872Z,14.05
2022-11-17T12:08:23.475Z,10.88
2022-11-17T12:10:56.817Z,12.68
2022-11-17T12:15:54.318Z,14.70
2022-11-17T12:18:21.650Z,18.50
2022-11-17T12:21:04.899Z,20.00
2022-11-17T12:23:54.132Z,20.98
2022-11-17T12:26:27.032Z,20.52
2022-11-17T12:29:22.432Z,12.88
2022-11-17T12:31:51.643Z,12.77
2022-11-17T12:34:26.847Z,15.25
2022-11-17T12:37:20.155Z,10.85
2022-11-17T12:40:04.125Z,11.10
2022-11-17T12:42:35.793Z,9.02
2022-11-17T12:45:07.048Z,10.60
2022-11-17T12:47:35.568Z,11.13
2022-11-17T12:50:09.392Z,12.43
2022-11-17T12:53:01.353Z,14.02
2022-11-17T12:55:28.453Z,15.30
2022-11-17T12:58:06.210Z,18.38
2022-11-17T13:00:53.676Z,12.07
2022-11-17T13:03:41.027Z,14.18
2022-11-17T13:09:08.611Z,15.57
2022-11-17T13:11:36.204Z,13.90
2022-11-17T13:14:17.411Z,14.48
2022-11-17T13:16:50.672Z,18.08
2022-11-17T13:19:38.901Z,17.35
2022-11-17T13:22:19.035Z,25.75
2022-11-17T13:24:49.233Z,19.65
2022-11-17T13:27:26.335Z,13.82
2022-11-17T13:30:32.245Z,19.13
2022-11-17T13:33:03.040Z,19.55
2022-11-17T13:35:35.727Z,18.00
2022-11-17T13:38:06.941Z,9.75
2022-11-17T13:40:36.119Z,19.55
2022-11-17T13:43:05.189Z,21.75
2022-11-17T13:45:32.952Z,13.45
2022-11-17T13:48:00.059Z,17.85
2022-11-17T13:50:27.369Z,11.90
2022-11-17T13:52:58.656Z,12.77
2022-11-17T13:55:27.737Z,11.80
2022-11-17T13:58:01.329Z,12.40
2022-11-17T14:00:29.688Z,15.20
2022-11-17T14:03:26.204Z,16.95
2022-11-17T14:05:59.184Z,16.63
2022-11-17T14:08:32.113Z,11.55
2022-11-17T14:11:09.904Z,14.27
2022-11-17T14:13:43.377Z,12.18
2022-11-17T14:16:26.201Z,14.10
2022-11-17T14:18:58.303Z,12.50
2022-11-17T14:21:26.006Z,12.98
2022-11-17T14:24:03.596Z,14.40
2022-11-17T14:26:31.217Z,17.00
2022-11-17T14:29:02.715Z,17.98
2022-11-17T14:31:31.333Z,12.40
2022-11-17T14:33:58.805Z,19.00
2022-11-17T14:36:26.504Z,12.07
2022-11-17T14:38:53.764Z,17.27
2022-11-17T14:41:20.958Z,11.38
2022-11-17T14:43:48.551Z,13.98
2022-11-17T14:46:24.982Z,15.80
2022-11-17T14:48:53.600Z,27.65
2022-11-17T14:51:22.024Z,14.70
2022-11-17T14:53:49.387Z,18.98
2022-11-17T14:56:19.236Z,18.17
2022-11-17T14:58:47.991Z,16.17
2022-11-17T15:01:24.472Z,16.42
2022-11-17T15:03:53.218Z,15.20
2022-11-17T15:06:21.075Z,14.57
2022-11-17T15:08:54.301Z,21.33
2022-11-17T15:11:21.513Z,13.73
2022-11-17T15:13:48.875Z,17.08
2022-11-17T15:16:16.139Z,21.23
2022-11-17T15:18:48.201Z,21.10
2022-11-17T15:21:16.787Z,16.08
2022-11-17T15:23:44.924Z,16.42
2022-11-17T15:26:14.923Z,22.40
2022-11-17T15:28:42.418Z,23.65
2022-11-17T15:31:10.955Z,15.25
2022-11-17T15:33:40.832Z,18.63
2022-11-17T15:36:10.078Z,14.32
2022-11-17T15:38:37.925Z,18.38
2022-11-17T15:41:06.960Z,15.93
2022-11-17T15:43:38.661Z,17.13
2022-11-17T15:46:11.021Z,15.57
2022-11-17T15:48:40.542Z,8.90
2022-11-17T15:51:08.369Z,12.18
2022-11-17T15:53:37.381Z,9.38
2022-11-17T15:56:09.321Z,10.35
2022-11-17T15:58:36.905Z,11.02
2022-11-17T16:01:11.491Z,11.43
2022-11-17T16:03:40.822Z,12.00
2022-11-17T16:06:09.493Z,15.35
2022-11-17T16:08:37.953Z,25.90
2022-11-17T16:11:06.204Z,23.13
2022-11-17T16:13:34.410Z,24.88
2022-11-17T16:16:02.115Z,11.88
2022-11-17T16:18:30.473Z,27.48
2022-11-17T16:21:04.907Z,19.38
2022-11-17T16:23:38.994Z,27.17
2022-11-17T16:26:06.505Z,31.80
2022-11-17T16:28:33.687Z,22.98
2022-11-17T16:31:01.088Z,26.25
2022-11-17T16:33:28.290Z,28.08
2022-11-17T16:35:55.547Z,17.98
2022-11-17T16:38:23.109Z,22.02
2022-11-17T16:40:50.350Z,21.38
2022-11-17T16:43:17.721Z,18.25
2022-11-17T16:45:46.808Z,25.83
2022-11-17T16:48:19.110Z,20.98
2022-11-17T16:50:50.284Z,19.00
2022-11-17T16:53:18.783Z,19.15
2022-11-17T16:55:46.725Z,27.15
2022-11-17T16:58:14.288Z,21.17
2022-11-17T17:00:41.470Z,21.13
2022-11-17T17:03:08.742Z,24.10
2022-11-17T17:05:40.675Z,26.40
2022-11-17T17:08:08.304Z,21.50
2022-11-17T17:10:35.815Z,18.92
2022-11-17T17:13:03.193Z,25.50
2022-11-17T17:15:30.361Z,30.27
2022-11-17T17:17:58.055Z,35.70
2022-11-17T17:20:25.374Z,27.85
2022-11-17T17:22:55.169Z,23.70
2022-11-17T17:25:26.762Z,31.20
2022-11-17T17:27:58.772Z,28.10
2022-11-17T17:30:26.464Z,45.25
2022-11-17T17:32:55.907Z,80.78
2022-11-17T17:35:24.538Z,91.47
2022-11-17T17:37:52.475Z,104.20
2022-11-17T17:40:20.510Z,70.85
2022-11-17T17:43:17.189Z,36.83
2022-11-17T17:45:44.711Z,19.88
2022-11-17T17:48:12.737Z,18.05
2022-11-17T17:50:40.867Z,33.90
2022-11-17T17:53:12.416Z,91.60
2022-11-17T17:55:40.536Z,100.57
2022-11-17T17:58:09.376Z,125.75
2022-11-17T18:00:38.293Z,136.80
2022-11-17T18:03:06.985Z,121.35
2022-11-17T18:05:34.779Z,99.00
2022-11-17T18:08:05.560Z,72.95
2022-11-17T18:10:33.656Z,38.83
2022-11-17T18:13:05.158Z,41.22
2022-11-17T18:15:38.762Z,49.10
2022-11-17T18:18:06.256Z,35.70
2022-11-17T18:20:34.687Z,24.55
2022-11-17T18:23:02.475Z,34.28
2022-11-17T18:25:33.055Z,79.15
2022-11-17T18:28:01.716Z,38.03
2022-11-17T18:30:28.942Z,37.72
2022-11-17T18:33:01.712Z,36.40
2022-11-17T18:35:30.358Z,20.98
2022-11-17T18:38:00.440Z,27.77
2022-11-17T18:40:28.108Z,19.33
2022-11-17T18:42:58.734Z,18.70
2022-11-17T18:45:26.463Z,20.75
2022-11-17T18:47:53.851Z,26.73
2022-11-17T18:50:21.154Z,19.50
2022-11-17T18:52:48.514Z,15.27
2022-11-17T18:55:15.801Z,19.85
2022-11-17T18:57:45.044Z,19.15
2022-11-17T19:00:13.496Z,15.75
2022-11-17T19:02:40.639Z,20.20
2022-11-17T19:05:08.732Z,21.52
2022-11-17T19:07:36.143Z,27.38
2022-11-17T19:10:03.710Z,31.38
2022-11-17T19:12:30.988Z,27.70
2022-11-17T19:14:58.458Z,25.08
2022-11-17T19:17:26.798Z,43.28
2022-11-17T19:19:56.940Z,42.20
2022-11-17T19:22:25.284Z,39.30
2022-11-17T19:24:53.614Z,31.67
2022-11-17T19:27:28.039Z,42.40
2022-11-17T19:29:56.846Z,47.25
2022-11-17T19:32:26.659Z,40.88
2022-11-17T19:35:11.260Z,37.95
2022-11-17T19:37:44.330Z,32.97
2022-11-17T19:40:19.361Z,59.42
2022-11-17T19:42:52.180Z,77.47
2022-11-17T19:45:21.792Z,116.72
2022-11-17T19:47:50.196Z,106.28
2022-11-17T19:50:18.393Z,82.85
2022-11-17T19:52:45.582Z,61.35
2022-11-17T19:55:12.672Z,43.60
2022-11-17T19:57:40.202Z,33.63
2022-11-17T20:00:09.498Z,30.90
2022-11-17T20:02:40.845Z,19.42
2022-11-17T20:05:11.667Z,15.65
2022-11-17T20:07:47.274Z,18.58
2022-11-17T20:10:20.636Z,16.17
2022-11-17T20:12:51.798Z,22.42
2022-11-17T20:15:33.826Z,39.92
2022-11-17T20:18:02.954Z,73.97
2022-11-17T20:20:35.495Z,77.75
2022-11-17T20:23:14.352Z,45.58
2022-11-17T20:25:43.513Z,28.33
2022-11-17T20:28:17.227Z,17.38
2022-11-17T20:30:45.498Z,52.72
2022-11-17T20:33:14.470Z,75.28
2022-11-17T20:35:42.104Z,131.05
2022-11-17T20:38:13.130Z,213.07
2022-11-17T20:40:42.874Z,215.52
2022-11-17T20:43:10.072Z,186.20
2022-11-17T20:45:37.402Z,179.43
2022-11-17T20:48:04.752Z,125.88
2022-11-17T20:50:32.248Z,96.60
2022-11-17T20:52:59.444Z,99.85
2022-11-17T20:55:26.704Z,145.10
2022-11-17T20:57:56.442Z,242.65
2022-11-17T21:00:23.902Z,248.80
2022-11-17T21:02:51.166Z,184.70
2022-11-17T21:05:18.472Z,164.13
2022-11-17T21:07:45.771Z,80.35
2022-11-17T21:10:12.900Z,58.10
2022-11-17T21:12:40.181Z,44.80
2022-11-17T21:15:08.104Z,57.50
2022-11-17T21:17:54.281Z,82.28
2022-11-17T21:20:21.584Z,89.85
2022-11-17T21:22:49.116Z,69.47
2022-11-17T21:25:16.493Z,72.75
2022-11-17T21:27:44.430Z,61.38
2022-11-17T21:30:12.528Z,75.90
2022-11-17T21:32:43.082Z,71.65
2022-11-17T21:35:11.248Z,63.78
2022-11-17T21:37:39.022Z,72.15
2022-11-17T21:40:07.062Z,50.97
2022-11-17T21:42:34.446Z,60.47
2022-11-17T21:45:02.357Z,66.43
2022-11-17T21:47:33.524Z,70.07
2022-11-17T21:50:01.036Z,56.83
2022-11-17T21:52:28.342Z,61.00
2022-11-17T21:54:55.781Z,62.28
2022-11-17T21:57:23.495Z,55.95
2022-11-17T21:59:54.196Z,56.25
2022-11-17T22:02:24.053Z,45.13
2022-11-17T22:04:52.604Z,33.30
2022-11-17T22:07:20.190Z,26.48
2022-11-17T22:09:47.328Z,23.30
2022-11-17T22:12:15.189Z,23.95
2022-11-17T22:14:48.254Z,66.30
2022-11-17T22:19:43.913Z,67.82
2022-11-17T22:22:11.563Z,76.53
2022-11-17T22:24:39.843Z,56.53
2022-11-17T22:27:07.564Z,27.33
2022-11-17T22:29:35.177Z,18.25
2022-11-17T22:32:07.374Z,11.55
2022-11-17T22:34:38.683Z,18.13
2022-11-17T22:37:06.343Z,14.23
2022-11-17T22:39:34.206Z,14.35
2022-11-17T22:42:01.584Z,29.13
2022-11-17T22:44:30.038Z,45.28
2022-11-17T22:46:57.790Z,29.58
2022-11-17T22:49:25.422Z,22.40
2022-11-17T22:52:04.429Z,41.83
2022-11-17T22:54:32.147Z,29.48
2022-11-17T22:56:59.548Z,39.78
2022-11-17T22:59:27.950Z,42.38
2022-11-17T23:01:56.323Z,64.43
2022-11-17T23:04:23.991Z,41.60
2022-11-17T23:06:51.596Z,30.02
2022-11-17T23:09:19.251Z,30.90
2022-11-17T23:11:46.636Z,36.13
2022-11-17T23:14:15.022Z,38.35
2022-11-17T23:16:42.270Z,31.40
2022-11-17T23:19:14.231Z,19.05
2022-11-17T23:21:42.272Z,11.32
2022-11-17T23:24:11.300Z,12.73
2022-11-17T23:26:40.285Z,16.10
2022-11-17T23:29:08.314Z,21.05
2022-11-17T23:31:35.938Z,20.60
2022-11-17T23:34:03.503Z,19.77
2022-11-17T23:36:30.588Z,17.20
2022-11-17T23:38:58.178Z,13.27
2022-11-17T23:41:25.522Z,17.00
2022-11-17T23:43:53.985Z,25.00
2022-11-17T23:46:24.061Z,33.53
2022-11-17T23:48:51.548Z,34.78
2022-11-17T23:51:23.747Z,34.55
2022-11-17T23:53:51.292Z,32.40
2022-11-17T23:56:22.659Z,26.85
2022-11-17T23:58:51.121Z,20.25
